Time;durP1;ratioP1;P1;durP2;ratioP2;P2;SDS_P1;SDS_P2;PMS_P1;PMS_P2;Temp;Humidity;BMP_temperature;BMP_pressure;BME280_temperature;BME280_humidity;BME280_pressure;Samples;Min_cycle;Max_cycle;Signal;HPM_P1;HPM_P2
2021/12/29 00:01:00;;;;;;;11.80;8.63;;;;;;;;;;4997803;28;20997;-56
2021/12/29 00:03:26;;;;;;;12.07;8.67;;;;;;;;;;4997176;28;20244;-56
2021/12/29 00:05:52;;;;;;;9.77;8.77;;;;;;;;;;5007160;28;20555;-56
2021/12/29 00:08:18;;;;;;;10.07;9.07;;;;;;;;;;4992482;28;20291;-56
2021/12/29 00:10:46;;;;;;;11.07;8.47;;;;;;;;;;5000073;28;20952;-56
2021/12/29 00:13:12;;;;;;;10.83;8.77;;;;;;;;;;4979996;28;21240;-56
2021/12/29 00:15:38;;;;;;;9.20;8.30;;;;;;;;;;4992491;28;20260;-55
2021/12/29 00:18:04;;;;;;;10.87;8.67;;;;;;;;;;4989986;28;20252;-56
2021/12/29 00:20:31;;;;;;;10.60;9.00;;;;;;;;;;4994174;28;20315;-56
2021/12/29 00:23:01;;;;;;;9.07;8.13;;;;;;;;;;5001380;28;20225;-56
2021/12/29 00:25:27;;;;;;;10.83;8.83;;;;;;;;;;5005840;28;20242;-56
2021/12/29 00:27:58;;;;;;;11.13;8.47;;;;;;;;;;5003171;28;20228;-56
2021/12/29 00:30:24;;;;;;;12.70;8.73;;;;;;;;;;4997807;28;20231;-56
2021/12/29 00:32:50;;;;;;;9.80;8.80;;;;;;;;;;5007686;28;20236;-56
2021/12/29 00:35:16;;;;;;;9.27;8.17;;;;;;;;;;4994998;28;20706;-56
2021/12/29 00:37:42;;;;;;;9.63;8.47;;;;;;;;;;5003820;28;20298;-56
2021/12/29 00:40:09;;;;;;;9.43;8.53;;;;;;;;;;4994085;28;20523;-56
2021/12/29 00:42:35;;;;;;;9.77;8.77;;;;;;;;;;5012565;28;20232;-56
2021/12/29 00:45:01;;;;;;;10.83;9.17;;;;;;;;;;4999375;28;20326;-56
2021/12/29 00:47:32;;;;;;;11.17;9.23;;;;;;;;;;4993597;28;20314;-56
2021/12/29 00:49:59;;;;;;;11.27;9.20;;;;;;;;;;4989599;28;20235;-56
2021/12/29 00:52:25;;;;;;;13.60;10.40;;;;;;;;;;4992805;28;20243;-56
2021/12/29 00:54:51;;;;;;;11.73;9.53;;;;;;;;;;4998071;28;20233;-56
2021/12/29 00:57:17;;;;;;;12.27;9.27;;;;;;;;;;4995278;28;20300;-56
2021/12/29 00:59:45;;;;;;;15.63;10.17;;;;;;;;;;4995961;28;20274;-56
2021/12/29 01:02:11;;;;;;;15.23;9.43;;;;;;;;;;4998592;28;20611;-56
2021/12/29 01:04:38;;;;;;;12.07;9.20;;;;;;;;;;4994983;28;20640;-56
2021/12/29 01:07:03;;;;;;;12.57;8.90;;;;;;;;;;4992856;28;20695;-56
2021/12/29 01:09:29;;;;;;;13.57;10.00;;;;;;;;;;5009170;28;20241;-56
2021/12/29 01:11:57;;;;;;;13.20;9.43;;;;;;;;;;5004405;28;20872;-57
2021/12/29 01:14:25;;;;;;;14.17;8.97;;;;;;;;;;4998725;28;20423;-56
2021/12/29 01:16:50;;;;;;;10.50;9.23;;;;;;;;;;4996476;28;20895;-57
2021/12/29 01:19:24;;;;;;;10.80;9.47;;;;;;;;;;4996907;28;20224;-57
2021/12/29 01:21:51;;;;;;;12.10;10.17;;;;;;;;;;4975729;28;20706;-56
2021/12/29 01:24:17;;;;;;;11.50;9.70;;;;;;;;;;5002220;28;21377;-56
2021/12/29 01:26:43;;;;;;;13.20;9.43;;;;;;;;;;4999021;28;20236;-57
2021/12/29 01:29:12;;;;;;;12.33;9.80;;;;;;;;;;5004951;28;20244;-57
2021/12/29 01:31:38;;;;;;;14.97;10.27;;;;;;;;;;5004345;28;20235;-57
2021/12/29 01:34:05;;;;;;;12.60;9.93;;;;;;;;;;5001565;28;20235;-56
2021/12/29 01:36:32;;;;;;;11.27;9.97;;;;;;;;;;4998339;28;20705;-56
2021/12/29 01:38:58;;;;;;;13.93;9.80;;;;;;;;;;5010103;28;20906;-56
2021/12/29 01:41:24;;;;;;;10.90;9.80;;;;;;;;;;5008314;28;20220;-56
2021/12/29 01:43:50;;;;;;;12.23;9.90;;;;;;;;;;4997954;28;20367;-56
2021/12/29 01:46:16;;;;;;;13.90;10.03;;;;;;;;;;5013017;28;20420;-56
2021/12/29 01:48:42;;;;;;;11.63;9.70;;;;;;;;;;5004828;28;20262;-56
2021/12/29 01:51:08;;;;;;;11.03;9.73;;;;;;;;;;4994819;28;20788;-56
2021/12/29 01:53:35;;;;;;;13.37;10.93;;;;;;;;;;5006187;28;20228;-56
2021/12/29 01:56:01;;;;;;;12.20;9.43;;;;;;;;;;5002907;28;20237;-56
2021/12/29 01:58:27;;;;;;;15.10;9.47;;;;;;;;;;4999624;28;20670;-56
2021/12/29 02:00:54;;;;;;;12.40;10.00;;;;;;;;;;4996172;28;20617;-56
2021/12/29 02:03:20;;;;;;;11.87;9.63;;;;;;;;;;4994539;28;20695;-56
2021/12/29 02:05:47;;;;;;;11.80;9.63;;;;;;;;;;4994585;28;20817;-56
2021/12/29 02:08:21;;;;;;;11.50;10.07;;;;;;;;;;4999047;28;20239;-56
2021/12/29 02:10:47;;;;;;;11.10;9.73;;;;;;;;;;4998586;28;20252;-57
2021/12/29 02:13:13;;;;;;;10.63;9.40;;;;;;;;;;5003228;28;20242;-56
2021/12/29 02:15:39;;;;;;;11.13;10.03;;;;;;;;;;5010172;28;20677;-56
2021/12/29 02:18:12;;;;;;;10.73;9.63;;;;;;;;;;5002316;28;20228;-56
2021/12/29 02:20:39;;;;;;;12.63;9.80;;;;;;;;;;5005100;28;20255;-56
2021/12/29 02:23:17;;;;;;;10.63;9.53;;;;;;;;;;5004978;28;20239;-56
2021/12/29 02:26:01;;;;;;;11.73;10.37;;;;;;;;;;4990568;28;20250;-56
2021/12/29 02:28:29;;;;;;;10.23;9.27;;;;;;;;;;5008028;28;20792;-56
2021/12/29 02:30:55;;;;;;;11.30;10.20;;;;;;;;;;4989010;28;20271;-56
2021/12/29 02:33:22;;;;;;;11.33;10.13;;;;;;;;;;4999509;28;20332;-56
2021/12/29 02:35:48;;;;;;;11.23;10.10;;;;;;;;;;5000200;28;20251;-56
2021/12/29 02:38:27;;;;;;;13.10;10.80;;;;;;;;;;5004224;28;20597;-56
2021/12/29 02:40:54;;;;;;;12.23;10.30;;;;;;;;;;5003421;28;20232;-56
2021/12/29 02:43:21;;;;;;;12.07;10.87;;;;;;;;;;5009724;28;20231;-56
2021/12/29 02:45:50;;;;;;;14.07;11.10;;;;;;;;;;5002336;28;20232;-56
2021/12/29 02:48:17;;;;;;;16.13;11.87;;;;;;;;;;4992384;28;20487;-57
2021/12/29 02:50:43;;;;;;;12.10;10.90;;;;;;;;;;4997776;28;20231;-57
2021/12/29 02:53:09;;;;;;;12.77;11.37;;;;;;;;;;4987855;28;20280;-57
2021/12/29 02:55:35;;;;;;;14.27;11.43;;;;;;;;;;4994066;28;20238;-57
2021/12/29 02:58:01;;;;;;;12.87;11.57;;;;;;;;;;4984382;28;20250;-57
2021/12/29 03:00:27;;;;;;;14.90;12.07;;;;;;;;;;4998666;28;20762;-57
2021/12/29 03:02:53;;;;;;;12.43;11.17;;;;;;;;;;4992759;28;20235;-57
2021/12/29 03:05:23;;;;;;;13.17;11.87;;;;;;;;;;4995012;28;20240;-58
2021/12/29 03:07:49;;;;;;;13.93;11.00;;;;;;;;;;5000324;28;20236;-57
2021/12/29 03:10:15;;;;;;;14.87;11.50;;;;;;;;;;4997356;28;20653;-57
2021/12/29 03:12:41;;;;;;;13.57;11.47;;;;;;;;;;5002906;28;21816;-56
2021/12/29 03:15:08;;;;;;;16.30;12.27;;;;;;;;;;4996355;28;20255;-56
2021/12/29 03:17:33;;;;;;;13.30;11.13;;;;;;;;;;4999247;28;20237;-56
2021/12/29 03:19:59;;;;;;;15.80;12.07;;;;;;;;;;4991102;28;20343;-56
2021/12/29 03:22:25;;;;;;;13.37;11.30;;;;;;;;;;4990713;28;20279;-57
2021/12/29 03:24:51;;;;;;;13.27;11.53;;;;;;;;;;4992975;28;20912;-56
2021/12/29 03:27:18;;;;;;;15.40;11.63;;;;;;;;;;4984398;28;20938;-56
2021/12/29 03:29:44;;;;;;;12.10;10.80;;;;;;;;;;4995431;28;20341;-57
2021/12/29 03:32:33;;;;;;;12.63;10.50;;;;;;;;;;4999769;28;20311;-56
2021/12/29 03:34:56;;;;;;;13.03;10.47;;;;;;;;;;5001626;28;20300;-57
2021/12/29 03:37:22;;;;;;;13.10;10.10;;;;;;;;;;4999666;28;20249;-56
2021/12/29 03:39:48;;;;;;;11.60;9.57;;;;;;;;;;4998746;28;20217;-56
2021/12/29 03:42:14;;;;;;;14.80;10.87;;;;;;;;;;5001994;28;20677;-56
2021/12/29 03:44:40;;;;;;;14.77;10.57;;;;;;;;;;4991625;28;20670;-56
2021/12/29 03:47:07;;;;;;;13.00;10.37;;;;;;;;;;5003446;28;20236;-56
2021/12/29 03:49:33;;;;;;;13.03;10.87;;;;;;;;;;4985355;28;20232;-56
2021/12/29 03:51:59;;;;;;;13.43;10.30;;;;;;;;;;4987433;28;20272;-56
2021/12/29 03:54:25;;;;;;;13.80;10.30;;;;;;;;;;4992907;28;20878;-56
2021/12/29 03:56:51;;;;;;;13.60;11.47;;;;;;;;;;4999296;28;20242;-56
2021/12/29 03:59:17;;;;;;;13.93;10.73;;;;;;;;;;5005233;28;20231;-56
2021/12/29 04:01:43;;;;;;;11.77;10.30;;;;;;;;;;5008637;28;21233;-56
2021/12/29 04:04:09;;;;;;;16.50;11.03;;;;;;;;;;5005864;28;20236;-56
2021/12/29 04:06:35;;;;;;;13.07;10.70;;;;;;;;;;5007829;28;20270;-56
2021/12/29 04:09:01;;;;;;;12.80;11.07;;;;;;;;;;4996056;28;20258;-56
2021/12/29 04:11:27;;;;;;;14.20;11.47;;;;;;;;;;5006338;28;20244;-56
2021/12/29 04:13:53;;;;;;;15.03;10.80;;;;;;;;;;5006173;28;20733;-56
2021/12/29 04:16:19;;;;;;;18.00;10.93;;;;;;;;;;5015905;28;20605;-56
2021/12/29 04:19:05;;;;;;;13.83;11.03;;;;;;;;;;5005910;28;20234;-56
2021/12/29 04:21:32;;;;;;;15.97;11.93;;;;;;;;;;5003525;28;20766;-56
2021/12/29 04:23:58;;;;;;;14.53;11.97;;;;;;;;;;5006731;28;20717;-56
2021/12/29 04:26:23;;;;;;;17.03;11.40;;;;;;;;;;4991223;28;21234;-56
2021/12/29 04:28:50;;;;;;;11.80;10.60;;;;;;;;;;5003944;28;20236;-56
2021/12/29 04:31:16;;;;;;;12.97;11.30;;;;;;;;;;5001552;28;22149;-56
2021/12/29 04:33:42;;;;;;;12.60;11.07;;;;;;;;;;5016754;28;20841;-56
2021/12/29 04:36:08;;;;;;;13.67;10.27;;;;;;;;;;5009846;28;20236;-56
2021/12/29 04:38:34;;;;;;;12.87;10.27;;;;;;;;;;5015012;28;20702;-56
2021/12/29 04:41:00;;;;;;;15.63;10.17;;;;;;;;;;5005147;28;20240;-56
2021/12/29 04:43:26;;;;;;;15.50;11.60;;;;;;;;;;4998298;28;20232;-56
2021/12/29 04:45:52;;;;;;;15.43;10.67;;;;;;;;;;4993228;28;20243;-56
2021/12/29 04:48:19;;;;;;;16.67;11.33;;;;;;;;;;5011200;28;20277;-56
2021/12/29 04:51:03;;;;;;;14.90;11.00;;;;;;;;;;5001294;28;20737;-56
2021/12/29 04:53:29;;;;;;;17.53;12.63;;;;;;;;;;4993739;28;20694;-56
2021/12/29 04:55:55;;;;;;;17.23;11.00;;;;;;;;;;4994243;28;20240;-56
2021/12/29 04:58:21;;;;;;;19.37;11.10;;;;;;;;;;4999032;28;20235;-56
2021/12/29 05:00:48;;;;;;;16.83;11.23;;;;;;;;;;4987971;28;20334;-56
2021/12/29 05:03:14;;;;;;;14.73;11.43;;;;;;;;;;5003028;28;20274;-56
2021/12/29 05:05:52;;;;;;;14.87;11.47;;;;;;;;;;4997877;28;20675;-56
2021/12/29 05:08:25;;;;;;;12.23;10.50;;;;;;;;;;5007555;28;20729;-56
2021/12/29 05:10:51;;;;;;;14.40;11.30;;;;;;;;;;4997848;28;20336;-56
2021/12/29 05:13:17;;;;;;;13.33;10.57;;;;;;;;;;4986743;28;20278;-56
2021/12/29 05:15:43;;;;;;;14.83;10.90;;;;;;;;;;4991947;28;20240;-56
2021/12/29 05:18:09;;;;;;;13.30;10.97;;;;;;;;;;4996197;28;20721;-56
2021/12/29 05:20:35;;;;;;;11.43;10.10;;;;;;;;;;4986499;28;20712;-56
2021/12/29 05:23:01;;;;;;;12.77;10.17;;;;;;;;;;4994927;28;20378;-56
2021/12/29 05:25:27;;;;;;;13.77;9.60;;;;;;;;;;4988722;28;20304;-56
2021/12/29 05:27:54;;;;;;;12.97;9.63;;;;;;;;;;5000363;28;20247;-56
2021/12/29 05:30:20;;;;;;;12.83;9.87;;;;;;;;;;4992188;28;20245;-56
2021/12/29 05:32:46;;;;;;;11.90;10.50;;;;;;;;;;4984162;28;20246;-56
2021/12/29 05:35:12;;;;;;;11.30;9.23;;;;;;;;;;4998213;28;20240;-56
2021/12/29 05:37:38;;;;;;;11.13;9.93;;;;;;;;;;4998677;28;20713;-56
2021/12/29 05:40:05;;;;;;;13.50;9.73;;;;;;;;;;4981340;28;20237;-56
2021/12/29 05:42:33;;;;;;;11.00;9.70;;;;;;;;;;5004430;28;20238;-56
2021/12/29 05:44:59;;;;;;;14.50;10.77;;;;;;;;;;4999618;28;20228;-56
2021/12/29 05:47:25;;;;;;;13.50;10.20;;;;;;;;;;5000724;28;20712;-56
2021/12/29 05:49:51;;;;;;;13.03;10.67;;;;;;;;;;5001968;28;20244;-56
2021/12/29 05:52:18;;;;;;;14.00;11.33;;;;;;;;;;4994670;28;20247;-56
2021/12/29 05:54:44;;;;;;;12.37;11.03;;;;;;;;;;5000233;28;20613;-56
2021/12/29 05:57:10;;;;;;;14.33;11.77;;;;;;;;;;5005861;28;20236;-56
2021/12/29 05:59:36;;;;;;;15.63;12.20;;;;;;;;;;5006285;28;20240;-56
2021/12/29 06:02:02;;;;;;;17.30;11.67;;;;;;;;;;4997711;28;20635;-56
2021/12/29 06:04:28;;;;;;;16.20;12.77;;;;;;;;;;5005588;28;20248;-56
2021/12/29 06:06:54;;;;;;;16.53;12.37;;;;;;;;;;5010070;28;20263;-56
2021/12/29 06:09:20;;;;;;;15.33;12.07;;;;;;;;;;5005890;28;20233;-56
2021/12/29 06:11:45;;;;;;;15.87;12.63;;;;;;;;;;5006085;28;20239;-56
2021/12/29 06:14:11;;;;;;;13.90;12.40;;;;;;;;;;5002967;28;20336;-56
2021/12/29 06:16:37;;;;;;;16.87;13.37;;;;;;;;;;5004830;28;20235;-56
2021/12/29 06:19:03;;;;;;;16.20;13.00;;;;;;;;;;5016518;28;20248;-56
2021/12/29 06:21:29;;;;;;;16.00;13.03;;;;;;;;;;5014208;28;20274;-56
2021/12/29 06:23:55;;;;;;;15.70;13.37;;;;;;;;;;5011653;28;20326;-56
2021/12/29 06:26:21;;;;;;;16.27;13.90;;;;;;;;;;4998288;28;20228;-56
2021/12/29 06:28:48;;;;;;;16.87;13.43;;;;;;;;;;4992082;28;20225;-56
2021/12/29 06:31:14;;;;;;;17.33;13.93;;;;;;;;;;4992080;28;20225;-56
2021/12/29 06:33:40;;;;;;;17.80;13.43;;;;;;;;;;4991815;28;20737;-56
2021/12/29 06:36:06;;;;;;;16.87;14.00;;;;;;;;;;5009787;28;20262;-56
2021/12/29 06:38:34;;;;;;;15.93;12.93;;;;;;;;;;4999177;28;20228;-56
2021/12/29 06:41:00;;;;;;;16.57;13.67;;;;;;;;;;5006388;28;20248;-56
2021/12/29 06:43:26;;;;;;;17.33;13.30;;;;;;;;;;5003966;28;20326;-56
2021/12/29 06:45:52;;;;;;;15.57;12.97;;;;;;;;;;5006417;28;20235;-56
2021/12/29 06:48:18;;;;;;;17.67;13.03;;;;;;;;;;5003137;28;20308;-56
2021/12/29 06:50:44;;;;;;;18.47;13.17;;;;;;;;;;5004150;28;24268;-56
2021/12/29 06:53:10;;;;;;;15.63;13.03;;;;;;;;;;5006315;28;20294;-56
2021/12/29 06:55:36;;;;;;;15.63;11.90;;;;;;;;;;4990903;28;20328;-56
2021/12/29 06:58:02;;;;;;;19.93;12.80;;;;;;;;;;4993595;28;20525;-56
2021/12/29 07:00:28;;;;;;;15.00;12.60;;;;;;;;;;5000956;28;20312;-55
2021/12/29 07:02:54;;;;;;;15.10;12.13;;;;;;;;;;5010519;28;20271;-55
2021/12/29 07:05:20;;;;;;;15.60;12.53;;;;;;;;;;5004213;28;20240;-56
2021/12/29 07:07:49;;;;;;;14.87;11.70;;;;;;;;;;5008869;28;20258;-56
2021/12/29 07:10:15;;;;;;;13.53;11.47;;;;;;;;;;4985096;28;20232;-56
2021/12/29 07:12:41;;;;;;;16.93;12.07;;;;;;;;;;5005558;28;20394;-56
2021/12/29 07:15:08;;;;;;;17.90;10.70;;;;;;;;;;5000004;28;22249;-56
2021/12/29 07:17:34;;;;;;;15.60;10.90;;;;;;;;;;5005269;28;20327;-56
2021/12/29 07:20:00;;;;;;;16.13;11.00;;;;;;;;;;5003289;28;20235;-56
2021/12/29 07:22:26;;;;;;;13.27;10.07;;;;;;;;;;4998447;28;20227;-56
2021/12/29 07:24:52;;;;;;;13.10;10.10;;;;;;;;;;5002517;28;20273;-56
2021/12/29 07:27:17;;;;;;;14.30;10.57;;;;;;;;;;5007886;28;20233;-56
2021/12/29 07:29:43;;;;;;;15.20;9.87;;;;;;;;;;5014124;28;20235;-56
2021/12/29 07:32:09;;;;;;;11.80;9.90;;;;;;;;;;5004419;28;20287;-56
2021/12/29 07:34:35;;;;;;;16.47;10.10;;;;;;;;;;5007443;28;20779;-55
2021/12/29 07:37:01;;;;;;;13.97;10.10;;;;;;;;;;5000756;28;21274;-56
2021/12/29 07:39:27;;;;;;;13.07;9.73;;;;;;;;;;5007585;28;20256;-56
2021/12/29 07:41:54;;;;;;;11.60;9.33;;;;;;;;;;5009634;28;20269;-56
2021/12/29 07:44:20;;;;;;;13.40;8.40;;;;;;;;;;5010493;28;20239;-56
2021/12/29 07:46:48;;;;;;;11.93;9.60;;;;;;;;;;5002736;28;20231;-56
2021/12/29 07:49:14;;;;;;;9.97;8.60;;;;;;;;;;4990050;28;20926;-56
2021/12/29 07:51:41;;;;;;;11.50;8.67;;;;;;;;;;4997721;28;20313;-55
2021/12/29 07:54:07;;;;;;;10.63;8.57;;;;;;;;;;4996619;28;20264;-56
2021/12/29 07:56:33;;;;;;;13.50;8.90;;;;;;;;;;5006766;28;20284;-55
2021/12/29 07:58:59;;;;;;;9.73;7.77;;;;;;;;;;5000263;28;20367;-55
2021/12/29 08:01:25;;;;;;;13.40;8.87;;;;;;;;;;5004396;28;20238;-56
2021/12/29 08:03:51;;;;;;;9.63;8.30;;;;;;;;;;5005943;28;20980;-55
2021/12/29 08:06:18;;;;;;;13.60;8.50;;;;;;;;;;5006248;28;20233;-56
2021/12/29 08:08:44;;;;;;;14.00;7.97;;;;;;;;;;5000029;28;20236;-56
2021/12/29 08:11:10;;;;;;;11.20;7.83;;;;;;;;;;5004658;28;20266;-55
2021/12/29 08:13:36;;;;;;;10.57;8.17;;;;;;;;;;5010909;28;20650;-56
2021/12/29 08:16:01;;;;;;;9.30;7.80;;;;;;;;;;5015896;28;20310;-55
2021/12/29 08:18:27;;;;;;;13.67;7.50;;;;;;;;;;5015047;28;20835;-55
2021/12/29 08:20:54;;;;;;;10.27;7.67;;;;;;;;;;5014792;28;20701;-55
2021/12/29 08:23:20;;;;;;;9.73;7.60;;;;;;;;;;5004140;28;20878;-55
2021/12/29 08:25:46;;;;;;;10.17;7.33;;;;;;;;;;5008276;28;20232;-55
2021/12/29 08:28:12;;;;;;;10.50;7.30;;;;;;;;;;5017206;28;20415;-57
2021/12/29 08:30:38;;;;;;;10.73;7.20;;;;;;;;;;5008459;28;20303;-57
2021/12/29 08:33:04;;;;;;;9.70;7.03;;;;;;;;;;5013494;28;20263;-57
2021/12/29 08:35:31;;;;;;;10.73;6.63;;;;;;;;;;5011298;28;20327;-57
2021/12/29 08:37:57;;;;;;;13.37;7.67;;;;;;;;;;5021710;28;20232;-56
2021/12/29 08:40:23;;;;;;;10.00;6.60;;;;;;;;;;5019422;28;20224;-57
2021/12/29 08:42:49;;;;;;;9.93;6.70;;;;;;;;;;5022442;28;20243;-57
2021/12/29 08:45:15;;;;;;;8.97;6.30;;;;;;;;;;5015738;28;20294;-57
2021/12/29 08:47:41;;;;;;;9.80;6.70;;;;;;;;;;5012743;28;20229;-58
2021/12/29 08:50:08;;;;;;;11.20;6.00;;;;;;;;;;5001394;28;20694;-57
2021/12/29 08:52:35;;;;;;;9.67;7.43;;;;;;;;;;5012104;28;20688;-57
2021/12/29 08:55:02;;;;;;;8.83;7.10;;;;;;;;;;5013391;28;20473;-56
2021/12/29 08:57:29;;;;;;;7.63;6.50;;;;;;;;;;5011927;28;20233;-57
2021/12/29 08:59:55;;;;;;;7.53;6.53;;;;;;;;;;5007684;28;20238;-56
2021/12/29 09:02:20;;;;;;;8.17;6.47;;;;;;;;;;5008210;28;20293;-56
2021/12/29 09:04:46;;;;;;;7.07;6.13;;;;;;;;;;5014959;28;20324;-56
2021/12/29 09:07:12;;;;;;;7.33;6.20;;;;;;;;;;5011705;28;20241;-57
2021/12/29 09:09:38;;;;;;;9.73;6.67;;;;;;;;;;5014622;28;20592;-56
2021/12/29 09:12:04;;;;;;;9.57;6.63;;;;;;;;;;5009432;28;20267;-57
2021/12/29 09:14:30;;;;;;;9.60;6.40;;;;;;;;;;5013775;28;20794;-57
2021/12/29 09:16:56;;;;;;;8.53;6.20;;;;;;;;;;5010830;28;20233;-56
2021/12/29 09:19:23;;;;;;;8.47;6.60;;;;;;;;;;5004793;28;20767;-57
2021/12/29 09:21:52;;;;;;;8.33;6.37;;;;;;;;;;5013578;28;20717;-57
2021/12/29 09:24:19;;;;;;;8.67;6.60;;;;;;;;;;5017480;28;20315;-57
2021/12/29 09:26:45;;;;;;;7.73;5.87;;;;;;;;;;5009280;28;21121;-57
2021/12/29 09:29:10;;;;;;;7.13;6.43;;;;;;;;;;5000629;28;20256;-56
2021/12/29 09:31:36;;;;;;;8.90;6.40;;;;;;;;;;5021043;28;20673;-57
2021/12/29 09:34:04;;;;;;;7.63;6.50;;;;;;;;;;5004120;28;20586;-57
2021/12/29 09:36:30;;;;;;;10.13;6.63;;;;;;;;;;5008698;28;20781;-56
2021/12/29 09:38:56;;;;;;;8.30;6.33;;;;;;;;;;5006080;28;20308;-56
2021/12/29 09:41:22;;;;;;;7.07;6.07;;;;;;;;;;5017763;28;20235;-57
2021/12/29 09:43:48;;;;;;;6.60;6.00;;;;;;;;;;5015494;28;20225;-57
2021/12/29 09:46:14;;;;;;;9.10;6.63;;;;;;;;;;5016860;28;20317;-57
2021/12/29 09:48:41;;;;;;;8.20;6.50;;;;;;;;;;5018503;28;21183;-57
2021/12/29 09:51:07;;;;;;;6.93;5.90;;;;;;;;;;5018672;28;20240;-57
2021/12/29 09:53:34;;;;;;;9.07;6.50;;;;;;;;;;5014330;28;20848;-57
2021/12/29 09:56:00;;;;;;;6.97;6.27;;;;;;;;;;5012980;28;20385;-57
2021/12/29 09:58:26;;;;;;;6.93;6.07;;;;;;;;;;5007156;28;20251;-57
2021/12/29 10:00:56;;;;;;;10.90;6.43;;;;;;;;;;5006879;28;20232;-57
2021/12/29 10:03:23;;;;;;;6.80;6.03;;;;;;;;;;5002280;28;20233;-57
2021/12/29 10:05:50;;;;;;;8.50;6.13;;;;;;;;;;4993293;28;20228;-57
2021/12/29 10:08:20;;;;;;;6.03;5.43;;;;;;;;;;5012207;28;20236;-56
2021/12/29 10:10:47;;;;;;;8.93;5.80;;;;;;;;;;4998186;28;20254;-57
2021/12/29 10:13:13;;;;;;;10.83;6.27;;;;;;;;;;5002322;28;20330;-57
2021/12/29 10:15:40;;;;;;;6.37;5.53;;;;;;;;;;5013494;28;21170;-57
2021/12/29 10:18:10;;;;;;;6.30;5.70;;;;;;;;;;5017280;28;20546;-57
2021/12/29 10:20:46;;;;;;;9.33;6.33;;;;;;;;;;5020601;28;20242;-56
2021/12/29 10:23:15;;;;;;;9.37;6.43;;;;;;;;;;5014690;28;20224;-57
2021/12/29 10:25:41;;;;;;;6.40;5.80;;;;;;;;;;5011891;28;20251;-57
2021/12/29 10:28:07;;;;;;;7.53;5.93;;;;;;;;;;5010325;28;20227;-57
2021/12/29 10:30:33;;;;;;;6.50;5.60;;;;;;;;;;5008748;28;20322;-57
2021/12/29 10:33:09;;;;;;;9.27;5.53;;;;;;;;;;4997955;28;20832;-57
2021/12/29 10:35:35;;;;;;;8.53;5.77;;;;;;;;;;5004203;28;20342;-57
2021/12/29 10:38:11;;;;;;;5.83;5.20;;;;;;;;;;5007181;28;20572;-57
2021/12/29 10:40:37;;;;;;;9.07;6.33;;;;;;;;;;4995696;28;21291;-57
2021/12/29 10:43:03;;;;;;;10.63;6.10;;;;;;;;;;4992768;28;20255;-57
2021/12/29 10:45:49;;;;;;;9.37;5.73;;;;;;;;;;4997715;28;20231;-57
2021/12/29 10:48:21;;;;;;;8.87;6.37;;;;;;;;;;4993847;28;20239;-57
2021/12/29 10:50:54;;;;;;;9.77;6.53;;;;;;;;;;4992733;28;20335;-57
2021/12/29 10:53:21;;;;;;;11.17;5.93;;;;;;;;;;4995686;28;20236;-57
2021/12/29 10:55:46;;;;;;;8.63;6.43;;;;;;;;;;4994345;28;20232;-57
2021/12/29 10:58:14;;;;;;;9.90;6.83;;;;;;;;;;4995166;28;20225;-57
2021/12/29 11:00:40;;;;;;;11.33;6.17;;;;;;;;;;4982432;28;20611;-57
2021/12/29 11:03:10;;;;;;;11.80;6.80;;;;;;;;;;5016977;28;20426;-57
2021/12/29 11:05:37;;;;;;;11.33;6.53;;;;;;;;;;5018915;28;20240;-57
2021/12/29 11:08:07;;;;;;;9.93;6.10;;;;;;;;;;5017845;28;20279;-57
2021/12/29 11:10:33;;;;;;;8.57;5.93;;;;;;;;;;5017685;28;20604;-57
2021/12/29 11:12:59;;;;;;;11.87;6.10;;;;;;;;;;5012606;28;20299;-57
2021/12/29 11:15:26;;;;;;;9.50;6.03;;;;;;;;;;5020138;28;20236;-57
2021/12/29 11:17:52;;;;;;;10.27;5.93;;;;;;;;;;5021659;28;20323;-57
2021/12/29 11:20:19;;;;;;;8.63;6.10;;;;;;;;;;5024537;28;20275;-57
2021/12/29 11:22:45;;;;;;;10.80;6.00;;;;;;;;;;5014156;28;21338;-57
2021/12/29 11:25:11;;;;;;;8.37;5.77;;;;;;;;;;5022234;28;20347;-57
2021/12/29 11:27:37;;;;;;;8.37;5.20;;;;;;;;;;5024096;28;20509;-57
2021/12/29 11:30:08;;;;;;;7.47;4.80;;;;;;;;;;5023489;28;20247;-57
2021/12/29 11:32:43;;;;;;;6.57;4.90;;;;;;;;;;5017678;28;20259;-57
2021/12/29 11:35:13;;;;;;;10.10;4.93;;;;;;;;;;5025260;28;20224;-57
2021/12/29 11:37:43;;;;;;;10.43;5.00;;;;;;;;;;5024979;28;20232;-57
2021/12/29 11:40:10;;;;;;;7.07;4.70;;;;;;;;;;5016785;28;20644;-57
2021/12/29 11:42:36;;;;;;;5.83;4.50;;;;;;;;;;5017640;28;20745;-56
2021/12/29 11:45:02;;;;;;;7.80;4.70;;;;;;;;;;5009472;28;21089;-57
2021/12/29 11:47:28;;;;;;;8.80;4.53;;;;;;;;;;5020057;28;20252;-57
2021/12/29 11:49:54;;;;;;;6.87;3.90;;;;;;;;;;5019192;28;20405;-56
2021/12/29 11:52:26;;;;;;;10.10;3.90;;;;;;;;;;5024587;28;20719;-57
2021/12/29 11:55:02;;;;;;;6.73;4.10;;;;;;;;;;5017462;28;20359;-57
2021/12/29 11:57:28;;;;;;;8.23;4.30;;;;;;;;;;5020693;28;20294;-57
2021/12/29 11:59:54;;;;;;;7.60;3.90;;;;;;;;;;5028921;28;20331;-57
2021/12/29 12:02:24;;;;;;;8.30;3.70;;;;;;;;;;5029971;28;20744;-57
2021/12/29 12:05:00;;;;;;;6.20;3.33;;;;;;;;;;5025836;28;20238;-57
2021/12/29 12:07:26;;;;;;;4.50;3.10;;;;;;;;;;5022525;28;20256;-57
2021/12/29 12:09:52;;;;;;;7.80;3.40;;;;;;;;;;5019275;28;20232;-57
2021/12/29 12:12:18;;;;;;;5.50;3.40;;;;;;;;;;5018650;28;20235;-57
2021/12/29 12:14:46;;;;;;;5.10;3.30;;;;;;;;;;5016694;28;20362;-57
2021/12/29 12:17:19;;;;;;;6.87;3.23;;;;;;;;;;5009145;28;20232;-57
2021/12/29 12:19:45;;;;;;;5.00;3.27;;;;;;;;;;5018926;28;20271;-57
2021/12/29 12:22:18;;;;;;;5.40;3.00;;;;;;;;;;5013368;28;20257;-57
2021/12/29 12:24:50;;;;;;;4.90;2.90;;;;;;;;;;5024718;28;20588;-57
2021/12/29 12:27:25;;;;;;;5.80;3.20;;;;;;;;;;5008184;28;20232;-57
2021/12/29 12:29:59;;;;;;;7.20;3.27;;;;;;;;;;5025843;28;20239;-57
2021/12/29 12:32:25;;;;;;;7.17;3.40;;;;;;;;;;5022916;28;20607;-57
2021/12/29 12:34:52;;;;;;;6.63;2.80;;;;;;;;;;5020148;28;20232;-57
2021/12/29 12:37:38;;;;;;;4.93;3.00;;;;;;;;;;5017699;28;20236;-57
2021/12/29 12:40:04;;;;;;;6.10;3.20;;;;;;;;;;5011828;28;20225;-56
2021/12/29 12:42:30;;;;;;;5.07;2.57;;;;;;;;;;5021009;28;20228;-57
2021/12/29 12:44:57;;;;;;;5.03;3.00;;;;;;;;;;5009955;28;21900;-55
2021/12/29 12:47:27;;;;;;;5.10;3.03;;;;;;;;;;5012245;28;20733;-56
2021/12/29 12:49:53;;;;;;;6.60;3.00;;;;;;;;;;5013531;28;20235;-55
2021/12/29 12:52:20;;;;;;;6.47;3.30;;;;;;;;;;5020458;28;20229;-56
2021/12/29 12:54:54;;;;;;;3.60;3.30;;;;;;;;;;5016308;28;20236;-56
2021/12/29 12:57:26;;;;;;;6.40;3.43;;;;;;;;;;5018951;28;20907;-56
2021/12/29 12:59:53;;;;;;;3.97;3.17;;;;;;;;;;4994657;28;20363;-56
2021/12/29 13:02:22;;;;;;;4.33;3.63;;;;;;;;;;5023336;28;20240;-57
2021/12/29 13:05:06;;;;;;;4.57;3.10;;;;;;;;;;5025564;28;20619;-56
2021/12/29 13:07:32;;;;;;;3.63;3.10;;;;;;;;;;5021127;28;20242;-56
2021/12/29 13:09:58;;;;;;;6.63;2.90;;;;;;;;;;5020210;28;20778;-56
2021/12/29 13:12:31;;;;;;;3.33;3.00;;;;;;;;;;5010841;28;20251;-56
2021/12/29 13:14:58;;;;;;;4.43;2.73;;;;;;;;;;5010317;28;20232;-56
2021/12/29 13:17:24;;;;;;;3.00;2.70;;;;;;;;;;5025645;28;20229;-56
2021/12/29 13:19:50;;;;;;;5.97;2.80;;;;;;;;;;5026016;28;20247;-56
2021/12/29 13:22:26;;;;;;;2.97;2.67;;;;;;;;;;5022593;28;21737;-56
2021/12/29 13:24:52;;;;;;;3.50;2.97;;;;;;;;;;5025028;28;20236;-56
2021/12/29 13:27:21;;;;;;;5.17;2.63;;;;;;;;;;5028890;28;20273;-56
2021/12/29 13:29:57;;;;;;;3.60;2.60;;;;;;;;;;5020468;28;20235;-55
2021/12/29 13:32:23;;;;;;;2.97;2.67;;;;;;;;;;5024337;28;20239;-56
2021/12/29 13:34:58;;;;;;;3.30;3.00;;;;;;;;;;5024562;28;20225;-56
2021/12/29 13:37:24;;;;;;;4.57;2.50;;;;;;;;;;5025173;28;20674;-56
2021/12/29 13:39:53;;;;;;;4.17;2.90;;;;;;;;;;5023419;28;20236;-56
2021/12/29 13:42:19;;;;;;;5.20;2.97;;;;;;;;;;5027624;28;20965;-55
2021/12/29 13:44:45;;;;;;;3.33;2.63;;;;;;;;;;5021415;28;20227;-55
2021/12/29 13:47:11;;;;;;;4.23;2.70;;;;;;;;;;5022343;28;20850;-56
2021/12/29 13:49:37;;;;;;;4.27;2.83;;;;;;;;;;5024007;28;20699;-56
2021/12/29 13:52:03;;;;;;;3.47;2.63;;;;;;;;;;5023435;28;20337;-56
2021/12/29 13:54:29;;;;;;;3.73;2.73;;;;;;;;;;5027127;28;20678;-56
2021/12/29 13:56:55;;;;;;;6.33;2.63;;;;;;;;;;5014860;28;20320;-56
2021/12/29 13:59:22;;;;;;;2.60;2.40;;;;;;;;;;5006867;28;20286;-56
2021/12/29 14:01:52;;;;;;;3.47;2.60;;;;;;;;;;5012910;28;20602;-56
2021/12/29 14:04:23;;;;;;;3.77;2.57;;;;;;;;;;5024075;28;20230;-56
2021/12/29 14:06:53;;;;;;;4.90;2.60;;;;;;;;;;5013085;28;20355;-56
2021/12/29 14:09:19;;;;;;;4.63;2.93;;;;;;;;;;5016148;28;20644;-56
2021/12/29 14:11:45;;;;;;;4.60;2.87;;;;;;;;;;5009459;28;20613;-56
2021/12/29 14:14:12;;;;;;;3.90;2.90;;;;;;;;;;5010589;28;20233;-56
2021/12/29 14:17:04;;;;;;;4.20;2.77;;;;;;;;;;5022545;28;20246;-56
2021/12/29 14:19:31;;;;;;;5.07;2.90;;;;;;;;;;5002473;28;21595;-56
2021/12/29 14:21:57;;;;;;;3.10;2.80;;;;;;;;;;5016691;28;20239;-56
2021/12/29 14:24:23;;;;;;;3.93;2.70;;;;;;;;;;5017219;28;20244;-56
2021/12/29 14:26:50;;;;;;;6.10;2.93;;;;;;;;;;5013362;28;20225;-57
2021/12/29 14:29:19;;;;;;;5.37;2.90;;;;;;;;;;5018262;28;20215;-57
2021/12/29 14:31:52;;;;;;;5.80;2.87;;;;;;;;;;5012055;28;20217;-57